sensor_id;sensor_type;location;lat;lon;timestamp;pressure;altitude;pressure_sealevel;temperature;humidity
20622;BME280;10470;42.670;23.354;2022-09-16T00:00:27;94361.53;;;22.07;100.00
20622;BME280;10470;42.670;23.354;2022-09-16T00:02:54;94350.66;;;22.09;100.00
20622;BME280;10470;42.670;23.354;2022-09-16T00:05:20;94348.63;;;21.83;100.00
20622;BME280;10470;42.670;23.354;2022-09-16T00:07:45;94358.66;;;21.59;100.00
20622;BME280;10470;42.670;23.354;2022-09-16T00:10:11;94349.59;;;21.72;100.00
20622;BME280;10470;42.670;23.354;2022-09-16T00:12:39;94352.59;;;21.74;100.00
20622;BME280;10470;42.670;23.354;2022-09-16T00:15:05;94331.75;;;21.54;100.00
20622;BME280;10470;42.670;23.354;2022-09-16T00:17:30;94358.03;;;21.67;100.00
20622;BME280;10470;42.670;23.354;2022-09-16T00:19:56;94358.44;;;21.57;100.00
20622;BME280;10470;42.670;23.354;2022-09-16T00:22:23;94357.06;;;21.64;100.00
20622;BME280;10470;42.670;23.354;2022-09-16T00:24:49;94358.06;;;21.48;100.00
20622;BME280;10470;42.670;23.354;2022-09-16T00:27:15;94336.13;;;21.63;100.00
20622;BME280;10470;42.670;23.354;2022-09-16T00:29:40;94342.97;;;21.62;100.00
20622;BME280;10470;42.670;23.354;2022-09-16T00:32:06;94344.47;;;21.76;100.00
20622;BME280;10470;42.670;23.354;2022-09-16T00:34:32;94349.28;;;21.89;100.00
20622;BME280;10470;42.670;23.354;2022-09-16T00:36:57;94352.03;;;21.76;100.00
20622;BME280;10470;42.670;23.354;2022-09-16T00:39:23;94349.25;;;21.49;100.00
20622;BME280;10470;42.670;23.354;2022-09-16T00:41:48;94350.56;;;21.75;100.00
20622;BME280;10470;42.670;23.354;2022-09-16T00:50:19;94348.41;;;21.54;100.00
20622;BME280;10470;42.670;23.354;2022-09-16T00:52:46;94349.34;;;21.44;100.00
20622;BME280;10470;42.670;23.354;2022-09-16T00:55:18;94345.97;;;21.32;100.00
20622;BME280;10470;42.670;23.354;2022-09-16T00:57:45;94346.94;;;21.34;100.00
20622;BME280;10470;42.670;23.354;2022-09-16T01:00:11;94362.47;;;21.56;100.00
20622;BME280;10470;42.670;23.354;2022-09-16T01:02:40;94369.84;;;21.54;100.00
20622;BME280;10470;42.670;23.354;2022-09-16T01:05:16;94374.06;;;21.42;100.00
20622;BME280;10470;42.670;23.354;2022-09-16T01:07:45;94362.94;;;21.28;100.00
20622;BME280;10470;42.670;23.354;2022-09-16T01:10:16;94350.28;;;21.14;100.00
20622;BME280;10470;42.670;23.354;2022-09-16T01:12:46;94369.56;;;21.06;100.00
20622;BME280;10470;42.670;23.354;2022-09-16T01:15:14;94350.66;;;21.24;100.00
20622;BME280;10470;42.670;23.354;2022-09-16T01:26:29;94372.41;;;21.20;100.00
20622;BME280;10470;42.670;23.354;2022-09-16T01:34:52;94365.16;;;20.98;100.00
20622;BME280;10470;42.670;23.354;2022-09-16T01:40:02;94354.97;;;21.06;100.00
20622;BME280;10470;42.670;23.354;2022-09-16T01:42:36;94353.28;;;20.84;100.00
20622;BME280;10470;42.670;23.354;2022-09-16T01:45:11;94335.81;;;21.21;100.00
20622;BME280;10470;42.670;23.354;2022-09-16T01:50:36;94356.06;;;21.16;100.00
20622;BME280;10470;42.670;23.354;2022-09-16T01:53:19;94352.78;;;21.17;100.00
20622;BME280;10470;42.670;23.354;2022-09-16T01:56:08;94352.00;;;20.85;100.00
20622;BME280;10470;42.670;23.354;2022-09-16T01:59:11;94349.53;;;21.13;100.00
20622;BME280;10470;42.670;23.354;2022-09-16T02:01:53;94357.41;;;20.96;100.00
20622;BME280;10470;42.670;23.354;2022-09-16T02:04:26;94345.03;;;20.97;100.00
20622;BME280;10470;42.670;23.354;2022-09-16T02:06:54;94335.00;;;20.94;100.00
20622;BME280;10470;42.670;23.354;2022-09-16T02:09:26;94341.72;;;20.99;100.00
20622;BME280;10470;42.670;23.354;2022-09-16T02:11:57;94346.69;;;20.87;100.00
20622;BME280;10470;42.670;23.354;2022-09-16T02:14:32;94336.50;;;20.95;100.00
20622;BME280;10470;42.670;23.354;2022-09-16T02:17:03;94346.34;;;21.09;100.00
20622;BME280;10470;42.670;23.354;2022-09-16T02:19:38;94337.97;;;21.28;100.00
20622;BME280;10470;42.670;23.354;2022-09-16T02:22:09;94337.03;;;20.93;100.00
20622;BME280;10470;42.670;23.354;2022-09-16T02:24:36;94335.88;;;21.02;100.00
20622;BME280;10470;42.670;23.354;2022-09-16T02:27:05;94331.97;;;21.11;100.00
20622;BME280;10470;42.670;23.354;2022-09-16T02:29:41;94325.22;;;20.74;100.00
20622;BME280;10470;42.670;23.354;2022-09-16T02:32:09;94329.97;;;20.92;100.00
20622;BME280;10470;42.670;23.354;2022-09-16T02:34:42;94348.41;;;20.90;100.00
20622;BME280;10470;42.670;23.354;2022-09-16T02:37:28;94343.78;;;20.79;100.00
20622;BME280;10470;42.670;23.354;2022-09-16T02:39:58;94352.88;;;21.12;100.00
20622;BME280;10470;42.670;23.354;2022-09-16T02:42:29;94366.25;;;21.08;100.00
20622;BME280;10470;42.670;23.354;2022-09-16T02:44:55;94347.00;;;21.15;100.00
20622;BME280;10470;42.670;23.354;2022-09-16T02:47:37;94357.72;;;21.06;100.00
20622;BME280;10470;42.670;23.354;2022-09-16T02:52:47;94347.75;;;20.84;100.00
20622;BME280;10470;42.670;23.354;2022-09-16T02:57:48;94353.84;;;20.95;100.00
20622;BME280;10470;42.670;23.354;2022-09-16T03:00:14;94353.19;;;20.89;100.00
20622;BME280;10470;42.670;23.354;2022-09-16T03:02:39;94362.09;;;20.82;100.00
20622;BME280;10470;42.670;23.354;2022-09-16T03:05:05;94369.59;;;20.87;100.00
20622;BME280;10470;42.670;23.354;2022-09-16T03:07:31;94373.84;;;21.07;100.00
20622;BME280;10470;42.670;23.354;2022-09-16T03:09:57;94375.94;;;21.01;100.00
20622;BME280;10470;42.670;23.354;2022-09-16T03:21:09;94393.41;;;21.28;100.00
20622;BME280;10470;42.670;23.354;2022-09-16T03:23:43;94398.69;;;21.13;100.00
20622;BME280;10470;42.670;23.354;2022-09-16T03:26:17;94392.50;;;21.07;100.00
20622;BME280;10470;42.670;23.354;2022-09-16T03:31:46;94388.19;;;21.25;100.00
20622;BME280;10470;42.670;23.354;2022-09-16T03:34:20;94378.84;;;21.09;100.00
20622;BME280;10470;42.670;23.354;2022-09-16T03:36:57;94367.94;;;20.98;100.00
20622;BME280;10470;42.670;23.354;2022-09-16T03:39:24;94375.72;;;20.80;100.00
20622;BME280;10470;42.670;23.354;2022-09-16T03:41:50;94374.72;;;21.15;100.00
20622;BME280;10470;42.670;23.354;2022-09-16T03:44:15;94364.84;;;21.01;100.00
20622;BME280;10470;42.670;23.354;2022-09-16T03:46:41;94367.56;;;20.88;100.00
20622;BME280;10470;42.670;23.354;2022-09-16T03:49:06;94359.94;;;20.94;100.00
20622;BME280;10470;42.670;23.354;2022-09-16T03:51:32;94352.53;;;20.83;100.00
20622;BME280;10470;42.670;23.354;2022-09-16T03:53:57;94348.34;;;20.77;100.00
20622;BME280;10470;42.670;23.354;2022-09-16T03:56:23;94358.63;;;20.63;100.00
20622;BME280;10470;42.670;23.354;2022-09-16T03:58:49;94354.72;;;20.71;100.00
20622;BME280;10470;42.670;23.354;2022-09-16T04:01:14;94358.69;;;20.57;100.00
20622;BME280;10470;42.670;23.354;2022-09-16T04:03:40;94363.34;;;20.68;100.00
20622;BME280;10470;42.670;23.354;2022-09-16T04:06:06;94372.72;;;20.40;100.00
20622;BME280;10470;42.670;23.354;2022-09-16T04:08:31;94380.34;;;20.34;100.00
20622;BME280;10470;42.670;23.354;2022-09-16T04:10:59;94396.81;;;20.45;100.00
20622;BME280;10470;42.670;23.354;2022-09-16T04:13:28;94385.53;;;20.62;100.00
20622;BME280;10470;42.670;23.354;2022-09-16T04:15:53;94393.16;;;20.75;100.00
20622;BME280;10470;42.670;23.354;2022-09-16T04:18:19;94400.31;;;20.70;100.00
20622;BME280;10470;42.670;23.354;2022-09-16T04:20:44;94407.69;;;20.62;100.00
20622;BME280;10470;42.670;23.354;2022-09-16T04:23:10;94419.53;;;20.63;100.00
20622;BME280;10470;42.670;23.354;2022-09-16T04:25:35;94426.03;;;20.65;100.00
20622;BME280;10470;42.670;23.354;2022-09-16T04:28:01;94427.69;;;20.74;100.00
20622;BME280;10470;42.670;23.354;2022-09-16T04:30:27;94420.19;;;20.69;100.00
20622;BME280;10470;42.670;23.354;2022-09-16T04:32:53;94415.88;;;20.55;100.00
20622;BME280;10470;42.670;23.354;2022-09-16T04:35:19;94415.31;;;20.75;100.00
20622;BME280;10470;42.670;23.354;2022-09-16T04:37:45;94423.03;;;20.82;100.00
20622;BME280;10470;42.670;23.354;2022-09-16T04:40:10;94387.47;;;20.48;100.00
20622;BME280;10470;42.670;23.354;2022-09-16T04:42:36;94410.41;;;20.43;100.00
20622;BME280;10470;42.670;23.354;2022-09-16T04:45:02;94406.06;;;20.29;100.00
20622;BME280;10470;42.670;23.354;2022-09-16T04:47:27;94412.44;;;20.43;100.00
20622;BME280;10470;42.670;23.354;2022-09-16T04:49:53;94415.16;;;20.67;100.00
20622;BME280;10470;42.670;23.354;2022-09-16T04:52:19;94413.53;;;20.59;100.00
20622;BME280;10470;42.670;23.354;2022-09-16T04:54:44;94418.88;;;20.76;100.00
20622;BME280;10470;42.670;23.354;2022-09-16T04:57:10;94417.13;;;20.72;100.00
20622;BME280;10470;42.670;23.354;2022-09-16T04:59:35;94419.53;;;20.82;100.00
20622;BME280;10470;42.670;23.354;2022-09-16T05:02:01;94422.81;;;20.99;100.00
20622;BME280;10470;42.670;23.354;2022-09-16T05:04:26;94406.03;;;21.10;100.00
20622;BME280;10470;42.670;23.354;2022-09-16T05:06:52;94369.31;;;20.91;100.00
20622;BME280;10470;42.670;23.354;2022-09-16T05:09:17;94404.25;;;20.94;100.00
20622;BME280;10470;42.670;23.354;2022-09-16T05:11:46;94401.50;;;20.94;100.00
20622;BME280;10470;42.670;23.354;2022-09-16T05:14:16;94409.66;;;20.86;100.00
20622;BME280;10470;42.670;23.354;2022-09-16T05:16:43;94387.78;;;20.64;100.00
20622;BME280;10470;42.670;23.354;2022-09-16T05:19:12;94411.31;;;20.76;100.00
20622;BME280;10470;42.670;23.354;2022-09-16T05:21:39;94414.56;;;20.75;100.00
20622;BME280;10470;42.670;23.354;2022-09-16T05:24:07;94389.44;;;20.91;100.00
20622;BME280;10470;42.670;23.354;2022-09-16T05:26:34;94384.88;;;20.94;100.00
20622;BME280;10470;42.670;23.354;2022-09-16T05:29:14;94395.25;;;21.07;100.00
20622;BME280;10470;42.670;23.354;2022-09-16T05:31:43;94401.56;;;21.40;100.00
20622;BME280;10470;42.670;23.354;2022-09-16T05:34:13;94400.75;;;21.58;100.00
20622;BME280;10470;42.670;23.354;2022-09-16T05:36:40;94388.66;;;21.74;100.00
20622;BME280;10470;42.670;23.354;2022-09-16T05:39:11;94388.97;;;21.84;100.00
20622;BME280;10470;42.670;23.354;2022-09-16T05:41:37;94388.03;;;21.95;100.00
20622;BME280;10470;42.670;23.354;2022-09-16T05:44:03;94383.97;;;21.96;100.00
20622;BME280;10470;42.670;23.354;2022-09-16T05:46:30;94379.38;;;21.98;100.00
20622;BME280;10470;42.670;23.354;2022-09-16T05:48:56;94378.31;;;22.01;100.00
20622;BME280;10470;42.670;23.354;2022-09-16T05:51:23;94395.19;;;22.03;100.00
20622;BME280;10470;42.670;23.354;2022-09-16T05:53:50;94383.84;;;22.15;100.00
20622;BME280;10470;42.670;23.354;2022-09-16T05:56:21;94395.41;;;22.19;100.00
20622;BME280;10470;42.670;23.354;2022-09-16T05:58:47;94399.47;;;22.31;100.00
20622;BME280;10470;42.670;23.354;2022-09-16T06:01:17;94404.47;;;22.46;100.00
20622;BME280;10470;42.670;23.354;2022-09-16T06:03:44;94393.78;;;22.50;100.00
20622;BME280;10470;42.670;23.354;2022-09-16T06:08:37;94386.63;;;22.55;100.00
20622;BME280;10470;42.670;23.354;2022-09-16T06:11:04;94360.38;;;22.42;100.00
20622;BME280;10470;42.670;23.354;2022-09-16T06:13:30;94398.34;;;22.74;100.00
20622;BME280;10470;42.670;23.354;2022-09-16T06:15:57;94395.44;;;22.80;100.00
20622;BME280;10470;42.670;23.354;2022-09-16T06:18:24;94393.38;;;22.94;100.00
20622;BME280;10470;42.670;23.354;2022-09-16T06:20:50;94395.84;;;22.97;100.00
20622;BME280;10470;42.670;23.354;2022-09-16T06:23:16;94385.34;;;23.03;100.00
20622;BME280;10470;42.670;23.354;2022-09-16T06:25:42;94381.59;;;23.01;100.00
20622;BME280;10470;42.670;23.354;2022-09-16T06:28:08;94389.00;;;22.98;100.00
20622;BME280;10470;42.670;23.354;2022-09-16T06:30:36;94383.75;;;22.95;100.00
20622;BME280;10470;42.670;23.354;2022-09-16T06:33:02;94389.63;;;23.04;100.00
20622;BME280;10470;42.670;23.354;2022-09-16T06:35:28;94379.84;;;23.11;100.00
20622;BME280;10470;42.670;23.354;2022-09-16T06:37:54;94387.94;;;23.22;100.00
20622;BME280;10470;42.670;23.354;2022-09-16T06:40:19;94389.31;;;23.29;100.00
20622;BME280;10470;42.670;23.354;2022-09-16T06:42:45;94398.66;;;23.18;100.00
20622;BME280;10470;42.670;23.354;2022-09-16T06:45:10;94383.59;;;23.34;100.00
20622;BME280;10470;42.670;23.354;2022-09-16T06:47:36;94391.63;;;23.38;100.00
20622;BME280;10470;42.670;23.354;2022-09-16T06:50:03;94393.44;;;23.57;100.00
20622;BME280;10470;42.670;23.354;2022-09-16T06:52:30;94399.13;;;23.93;100.00
20622;BME280;10470;42.670;23.354;2022-09-16T06:54:56;94394.41;;;23.80;100.00
20622;BME280;10470;42.670;23.354;2022-09-16T06:57:21;94392.81;;;23.92;100.00
20622;BME280;10470;42.670;23.354;2022-09-16T06:59:48;94398.59;;;23.94;100.00
20622;BME280;10470;42.670;23.354;2022-09-16T07:02:13;94390.88;;;24.08;100.00
20622;BME280;10470;42.670;23.354;2022-09-16T07:04:39;94396.16;;;23.91;100.00
20622;BME280;10470;42.670;23.354;2022-09-16T07:07:05;94407.13;;;23.96;100.00
20622;BME280;10470;42.670;23.354;2022-09-16T07:09:30;94406.00;;;23.92;100.00
20622;BME280;10470;42.670;23.354;2022-09-16T07:11:56;94400.03;;;24.16;100.00
20622;BME280;10470;42.670;23.354;2022-09-16T07:14:23;94409.97;;;24.33;100.00
20622;BME280;10470;42.670;23.354;2022-09-16T07:16:49;94410.81;;;24.20;100.00
20622;BME280;10470;42.670;23.354;2022-09-16T07:19:15;94407.06;;;24.17;100.00
20622;BME280;10470;42.670;23.354;2022-09-16T07:21:40;94404.16;;;24.23;100.00
20622;BME280;10470;42.670;23.354;2022-09-16T07:24:07;94400.44;;;24.49;100.00
20622;BME280;10470;42.670;23.354;2022-09-16T07:26:34;94387.78;;;24.48;100.00
20622;BME280;10470;42.670;23.354;2022-09-16T07:29:03;94402.00;;;24.66;100.00
20622;BME280;10470;42.670;23.354;2022-09-16T07:31:34;94387.53;;;24.67;100.00
20622;BME280;10470;42.670;23.354;2022-09-16T07:34:00;94387.66;;;24.61;100.00
20622;BME280;10470;42.670;23.354;2022-09-16T07:36:29;94392.63;;;24.48;99.19
20622;BME280;10470;42.670;23.354;2022-09-16T07:38:56;94396.91;;;24.56;98.55
20622;BME280;10470;42.670;23.354;2022-09-16T07:41:27;94395.53;;;24.78;98.46
20622;BME280;10470;42.670;23.354;2022-09-16T07:43:54;94380.00;;;24.98;98.39
20622;BME280;10470;42.670;23.354;2022-09-16T07:46:20;94365.31;;;25.13;100.00
20622;BME280;10470;42.670;23.354;2022-09-16T07:48:48;94367.94;;;25.03;100.00
20622;BME280;10470;42.670;23.354;2022-09-16T07:51:20;94357.06;;;24.77;98.58
20622;BME280;10470;42.670;23.354;2022-09-16T07:53:46;94368.88;;;25.06;96.10
20622;BME280;10470;42.670;23.354;2022-09-16T07:56:17;94366.25;;;25.08;95.82
20622;BME280;10470;42.670;23.354;2022-09-16T07:58:44;94378.03;;;25.53;96.37
20622;BME280;10470;42.670;23.354;2022-09-16T08:01:10;94363.34;;;25.44;92.78
20622;BME280;10470;42.670;23.354;2022-09-16T08:03:38;94365.78;;;25.71;90.62
20622;BME280;10470;42.670;23.354;2022-09-16T08:06:18;94359.63;;;25.80;90.03
20622;BME280;10470;42.670;23.354;2022-09-16T08:08:44;94364.31;;;25.85;89.90
20622;BME280;10470;42.670;23.354;2022-09-16T08:11:10;94350.88;;;25.84;90.42
20622;BME280;10470;42.670;23.354;2022-09-16T08:13:37;94358.34;;;25.74;89.91
20622;BME280;10470;42.670;23.354;2022-09-16T08:16:12;94360.19;;;26.02;89.57
20622;BME280;10470;42.670;23.354;2022-09-16T08:18:38;94346.59;;;25.83;87.38
20622;BME280;10470;42.670;23.354;2022-09-16T08:21:08;94347.00;;;25.87;86.69
20622;BME280;10470;42.670;23.354;2022-09-16T08:23:35;94331.16;;;25.97;84.59
20622;BME280;10470;42.670;23.354;2022-09-16T08:26:01;94350.56;;;26.58;84.46
20622;BME280;10470;42.670;23.354;2022-09-16T08:28:27;94350.50;;;26.74;85.58
20622;BME280;10470;42.670;23.354;2022-09-16T08:30:53;94348.03;;;26.86;85.72
20622;BME280;10470;42.670;23.354;2022-09-16T08:33:19;94347.84;;;26.84;86.94
20622;BME280;10470;42.670;23.354;2022-09-16T08:35:57;94339.09;;;26.79;84.21
20622;BME280;10470;42.670;23.354;2022-09-16T08:38:23;94340.00;;;26.82;84.13
20622;BME280;10470;42.670;23.354;2022-09-16T08:40:54;94337.72;;;26.55;81.84
20622;BME280;10470;42.670;23.354;2022-09-16T08:43:28;94330.75;;;27.05;80.50
20622;BME280;10470;42.670;23.354;2022-09-16T08:46:08;94330.91;;;26.74;79.14
20622;BME280;10470;42.670;23.354;2022-09-16T08:51:08;94328.91;;;26.99;76.94
20622;BME280;10470;42.670;23.354;2022-09-16T08:56:23;94313.41;;;27.06;77.91
20622;BME280;10470;42.670;23.354;2022-09-16T08:58:55;94313.28;;;26.96;77.71
20622;BME280;10470;42.670;23.354;2022-09-16T09:04:05;94317.50;;;27.05;79.56
20622;BME280;10470;42.670;23.354;2022-09-16T09:12:29;94323.06;;;27.13;82.07
20622;BME280;10470;42.670;23.354;2022-09-16T09:20:37;94334.41;;;27.15;79.50
20622;BME280;10470;42.670;23.354;2022-09-16T09:26:07;94338.56;;;27.39;80.37
20622;BME280;10470;42.670;23.354;2022-09-16T09:28:48;94326.50;;;27.29;81.13
20622;BME280;10470;42.670;23.354;2022-09-16T09:31:42;94333.38;;;27.35;80.12
20622;BME280;10470;42.670;23.354;2022-09-16T09:43:22;94322.41;;;27.30;77.14
20622;BME280;10470;42.670;23.354;2022-09-16T09:46:09;94323.66;;;27.36;78.54
20622;BME280;10470;42.670;23.354;2022-09-16T09:51:35;94335.81;;;27.31;78.76
20622;BME280;10470;42.670;23.354;2022-09-16T09:54:18;94340.97;;;27.10;79.27
20622;BME280;10470;42.670;23.354;2022-09-16T09:56:47;94340.47;;;27.04;80.16
20622;BME280;10470;42.670;23.354;2022-09-16T09:59:28;94338.44;;;26.96;80.94
20622;BME280;10470;42.670;23.354;2022-09-16T10:01:56;94348.59;;;27.17;82.35
20622;BME280;10470;42.670;23.354;2022-09-16T10:04:22;94346.41;;;27.08;84.56
20622;BME280;10470;42.670;23.354;2022-09-16T10:06:50;94367.22;;;26.82;85.61
20622;BME280;10470;42.670;23.354;2022-09-16T10:09:18;94373.47;;;26.65;90.74
20622;BME280;10470;42.670;23.354;2022-09-16T10:11:51;94387.69;;;26.36;96.83
20622;BME280;10470;42.670;23.354;2022-09-16T10:14:32;94391.81;;;26.20;100.00
20622;BME280;10470;42.670;23.354;2022-09-16T10:17:04;94401.91;;;25.92;100.00
20622;BME280;10470;42.670;23.354;2022-09-16T10:19:39;94394.63;;;25.58;100.00
20622;BME280;10470;42.670;23.354;2022-09-16T10:22:21;94444.69;;;25.71;100.00
20622;BME280;10470;42.670;23.354;2022-09-16T10:24:54;94474.63;;;25.56;100.00
20622;BME280;10470;42.670;23.354;2022-09-16T10:30:06;94536.38;;;24.30;100.00
20622;BME280;10470;42.670;23.354;2022-09-16T10:35:19;94573.16;;;23.12;100.00
20622;BME280;10470;42.670;23.354;2022-09-16T10:37:53;94576.69;;;22.73;100.00
20622;BME280;10470;42.670;23.354;2022-09-16T10:40:20;94571.06;;;22.46;100.00
20622;BME280;10470;42.670;23.354;2022-09-16T10:42:48;94557.16;;;22.19;100.00
20622;BME280;10470;42.670;23.354;2022-09-16T10:45:26;94573.84;;;21.81;100.00
20622;BME280;10470;42.670;23.354;2022-09-16T10:47:58;94563.81;;;21.78;100.00
20622;BME280;10470;42.670;23.354;2022-09-16T10:50:25;94564.88;;;21.37;100.00
20622;BME280;10470;42.670;23.354;2022-09-16T10:52:51;94560.16;;;21.32;100.00
20622;BME280;10470;42.670;23.354;2022-09-16T10:55:32;94561.84;;;21.41;100.00
20622;BME280;10470;42.670;23.354;2022-09-16T11:00:38;94520.06;;;21.33;100.00
20622;BME280;10470;42.670;23.354;2022-09-16T11:06:06;94503.91;;;21.00;100.00
20622;BME280;10470;42.670;23.354;2022-09-16T11:14:49;94449.28;;;21.32;100.00
20622;BME280;10470;42.670;23.354;2022-09-16T11:28:46;94393.25;;;23.54;100.00
20622;BME280;10470;42.670;23.354;2022-09-16T11:31:33;94381.16;;;23.73;100.00
20622;BME280;10470;42.670;23.354;2022-09-16T11:34:52;94379.91;;;23.74;100.00
20622;BME280;10470;42.670;23.354;2022-09-16T11:37:27;94366.47;;;23.93;100.00
20622;BME280;10470;42.670;23.354;2022-09-16T11:50:32;94364.06;;;26.22;100.00
20622;BME280;10470;42.670;23.354;2022-09-16T11:56:12;94359.75;;;27.50;95.08
20622;BME280;10470;42.670;23.354;2022-09-16T11:58:49;94359.53;;;26.57;99.52
20622;BME280;10470;42.670;23.354;2022-09-16T12:03:54;94318.41;;;27.65;100.00
20622;BME280;10470;42.670;23.354;2022-09-16T12:06:24;94333.88;;;27.16;100.00
20622;BME280;10470;42.670;23.354;2022-09-16T12:09:08;94326.19;;;27.25;100.00
20622;BME280;10470;42.670;23.354;2022-09-16T12:11:48;94335.66;;;27.29;100.00
20622;BME280;10470;42.670;23.354;2022-09-16T12:14:29;94339.31;;;28.24;96.14
20622;BME280;10470;42.670;23.354;2022-09-16T12:17:00;94346.66;;;28.02;93.95
20622;BME280;10470;42.670;23.354;2022-09-16T12:19:36;94349.22;;;28.08;96.53
20622;BME280;10470;42.670;23.354;2022-09-16T12:22:05;94344.34;;;27.08;99.42
20622;BME280;10470;42.670;23.354;2022-09-16T12:24:55;94351.59;;;27.19;100.00
20622;BME280;10470;42.670;23.354;2022-09-16T12:27:47;94355.94;;;26.64;100.00
20622;BME280;10470;42.670;23.354;2022-09-16T12:30:19;94363.47;;;26.39;100.00
20622;BME280;10470;42.670;23.354;2022-09-16T12:32:58;94360.34;;;26.11;100.00
20622;BME280;10470;42.670;23.354;2022-09-16T12:35:27;94364.28;;;26.01;100.00
20622;BME280;10470;42.670;23.354;2022-09-16T12:37:55;94375.81;;;25.28;100.00
20622;BME280;10470;42.670;23.354;2022-09-16T12:40:25;94362.44;;;25.49;100.00
20622;BME280;10470;42.670;23.354;2022-09-16T13:02:21;94430.63;;;24.74;100.00
20622;BME280;10470;42.670;23.354;2022-09-16T13:04:54;94444.56;;;24.16;100.00
20622;BME280;10470;42.670;23.354;2022-09-16T13:07:27;94448.28;;;23.90;100.00
20622;BME280;10470;42.670;23.354;2022-09-16T13:12:38;94462.81;;;23.75;100.00
20622;BME280;10470;42.670;23.354;2022-09-16T13:15:04;94465.94;;;23.72;100.00
20622;BME280;10470;42.670;23.354;2022-09-16T13:17:32;94476.28;;;23.50;100.00
20622;BME280;10470;42.670;23.354;2022-09-16T13:22:36;94484.16;;;23.60;100.00
20622;BME280;10470;42.670;23.354;2022-09-16T13:25:20;94484.47;;;23.35;100.00
20622;BME280;10470;42.670;23.354;2022-09-16T13:30:38;94474.63;;;22.86;100.00
20622;BME280;10470;42.670;23.354;2022-09-16T13:35:42;94445.66;;;22.82;100.00
20622;BME280;10470;42.670;23.354;2022-09-16T13:38:35;94433.19;;;22.49;100.00
20622;BME280;10470;42.670;23.354;2022-09-16T13:41:02;94428.06;;;23.14;100.00
20622;BME280;10470;42.670;23.354;2022-09-16T13:46:26;94383.28;;;23.17;100.00
20622;BME280;10470;42.670;23.354;2022-09-16T13:51:27;94342.53;;;23.69;100.00
20622;BME280;10470;42.670;23.354;2022-09-16T13:53:54;94328.63;;;23.90;100.00
20622;BME280;10470;42.670;23.354;2022-09-16T13:56:54;94338.97;;;23.61;100.00
20622;BME280;10470;42.670;23.354;2022-09-16T14:02:47;94328.41;;;23.39;100.00
20622;BME280;10470;42.670;23.354;2022-09-16T14:08:10;94336.34;;;23.14;100.00
20622;BME280;10470;42.670;23.354;2022-09-16T14:10:50;94337.69;;;23.20;100.00
20622;BME280;10470;42.670;23.354;2022-09-16T14:13:19;94353.06;;;23.00;100.00
20622;BME280;10470;42.670;23.354;2022-09-16T14:15:48;94350.16;;;23.06;100.00
20622;BME280;10470;42.670;23.354;2022-09-16T14:18:18;94379.31;;;23.13;100.00
20622;BME280;10470;42.670;23.354;2022-09-16T14:23:24;94408.56;;;22.79;100.00
20622;BME280;10470;42.670;23.354;2022-09-16T14:25:50;94397.34;;;22.85;100.00
20622;BME280;10470;42.670;23.354;2022-09-16T14:28:23;94381.28;;;23.04;100.00
20622;BME280;10470;42.670;23.354;2022-09-16T14:30:49;94374.34;;;22.98;100.00
20622;BME280;10470;42.670;23.354;2022-09-16T14:33:21;94362.84;;;22.80;100.00
20622;BME280;10470;42.670;23.354;2022-09-16T14:35:49;94352.91;;;23.19;100.00
20622;BME280;10470;42.670;23.354;2022-09-16T14:38:17;94352.75;;;22.90;100.00
20622;BME280;10470;42.670;23.354;2022-09-16T14:40:44;94353.63;;;22.85;100.00
20622;BME280;10470;42.670;23.354;2022-09-16T14:43:16;94342.91;;;23.24;100.00
20622;BME280;10470;42.670;23.354;2022-09-16T14:45:54;94349.56;;;23.00;100.00
20622;BME280;10470;42.670;23.354;2022-09-16T14:48:31;94351.25;;;23.03;100.00
20622;BME280;10470;42.670;23.354;2022-09-16T14:50:57;94357.16;;;22.99;100.00
20622;BME280;10470;42.670;23.354;2022-09-16T14:53:32;94347.94;;;23.04;100.00
20622;BME280;10470;42.670;23.354;2022-09-16T14:56:01;94351.25;;;23.03;100.00
20622;BME280;10470;42.670;23.354;2022-09-16T14:58:29;94348.41;;;23.16;100.00
20622;BME280;10470;42.670;23.354;2022-09-16T15:01:08;94369.28;;;23.09;100.00
20622;BME280;10470;42.670;23.354;2022-09-16T15:04:21;94372.06;;;23.09;100.00
20622;BME280;10470;42.670;23.354;2022-09-16T15:06:32;94374.03;;;22.88;100.00
20622;BME280;10470;42.670;23.354;2022-09-16T15:09:03;94363.56;;;22.94;100.00
20622;BME280;10470;42.670;23.354;2022-09-16T15:11:43;94377.84;;;23.11;100.00
20622;BME280;10470;42.670;23.354;2022-09-16T15:14:10;94357.22;;;22.73;100.00
20622;BME280;10470;42.670;23.354;2022-09-16T15:16:44;94362.47;;;22.63;100.00
20622;BME280;10470;42.670;23.354;2022-09-16T15:19:19;94365.78;;;22.61;100.00
20622;BME280;10470;42.670;23.354;2022-09-16T15:21:46;94364.88;;;22.80;100.00
20622;BME280;10470;42.670;23.354;2022-09-16T15:24:25;94364.38;;;22.68;100.00
20622;BME280;10470;42.670;23.354;2022-09-16T15:26:53;94349.50;;;22.79;100.00
20622;BME280;10470;42.670;23.354;2022-09-16T15:31:48;94268.91;;;22.58;100.00
20622;BME280;10470;42.670;23.354;2022-09-16T15:36:56;94289.47;;;22.41;100.00
20622;BME280;10470;42.670;23.354;2022-09-16T15:39:36;94268.78;;;22.63;100.00
20622;BME280;10470;42.670;23.354;2022-09-16T15:44:36;94264.25;;;22.74;100.00
20622;BME280;10470;42.670;23.354;2022-09-16T15:47:02;94272.44;;;22.58;100.00
20622;BME280;10470;42.670;23.354;2022-09-16T15:49:30;94263.81;;;22.49;100.00
20622;BME280;10470;42.670;23.354;2022-09-16T15:52:05;94253.94;;;22.61;100.00
20622;BME280;10470;42.670;23.354;2022-09-16T15:54:46;94252.38;;;22.52;100.00